Time;durP1;ratioP1;P1;durP2;ratioP2;P2;SDS_P1;SDS_P2;PMS_P1;PMS_P2;Temp;Humidity;BMP_temperature;BMP_pressure;BME280_temperature;BME280_humidity;BME280_pressure;Samples;Min_cycle;Max_cycle;Signal;HPM_P1;HPM_P2
2022/08/01 00:02:03;;;;;;;;;;;;;;;32.35;23.50;101059.94;4447157;32;19996;-68
2022/08/01 00:04:29;;;;;;;;;;;;;;;32.25;23.61;101048.09;4445652;32;19998;-68
2022/08/01 00:06:54;;;;;;;;;;;;;;;32.36;23.60;101049.81;4448691;32;19975;-68
2022/08/01 00:09:20;;;;;;;;;;;;;;;32.47;23.49;101050.22;4444812;32;20445;-68
2022/08/01 00:11:45;;;;;;;;;;;;;;;32.34;23.58;101058.41;4445721;32;20032;-68
2022/08/01 00:14:11;;;;;;;;;;;;;;;32.08;24.04;101044.97;4443895;32;20208;-68
2022/08/01 00:16:37;;;;;;;;;;;;;;;32.30;23.96;101052.91;4447386;32;19949;-68
2022/08/01 00:19:02;;;;;;;;;;;;;;;32.02;24.16;101053.13;4444857;32;19989;-68
2022/08/01 00:21:28;;;;;;;;;;;;;;;32.05;24.20;101060.69;4442668;32;20318;-68
2022/08/01 00:23:53;;;;;;;;;;;;;;;32.28;23.92;101060.69;4435029;32;20391;-68
2022/08/01 00:26:19;;;;;;;;;;;;;;;32.02;24.18;101050.22;4448442;32;19996;-68
2022/08/01 00:28:44;;;;;;;;;;;;;;;31.78;24.65;101050.75;4444394;32;19967;-68
2022/08/01 00:31:10;;;;;;;;;;;;;;;31.64;24.86;101052.28;4442920;32;20017;-69
2022/08/01 00:33:35;;;;;;;;;;;;;;;31.88;24.61;101060.50;4444813;32;20195;-68
2022/08/01 00:36:01;;;;;;;;;;;;;;;31.86;24.71;101057.37;4443557;32;19996;-68
2022/08/01 00:38:27;;;;;;;;;;;;;;;32.01;24.50;101051.59;4443911;32;20790;-68
2022/08/01 00:40:53;;;;;;;;;;;;;;;31.93;24.67;101059.53;4445532;32;20021;-68
2022/08/01 00:43:19;;;;;;;;;;;;;;;31.44;25.23;101055.34;4445176;32;19992;-67
2022/08/01 00:45:44;;;;;;;;;;;;;;;31.53;25.01;101055.53;4447100;32;19953;-68
2022/08/01 00:48:10;;;;;;;;;;;;;;;31.64;25.26;101061.00;4446426;32;20513;-68
2022/08/01 00:50:35;;;;;;;;;;;;;;;30.99;25.99;101058.03;4448440;32;19948;-68
2022/08/01 00:53:01;;;;;;;;;;;;;;;30.92;25.90;101050.06;4447901;32;19945;-68
2022/08/01 00:55:28;;;;;;;;;;;;;;;30.41;26.43;101058.66;4447616;32;20004;-68
2022/08/01 00:57:54;;;;;;;;;;;;;;;30.40;26.50;101045.47;4445157;32;20345;-68
2022/08/01 01:00:20;;;;;;;;;;;;;;;30.63;26.20;101043.47;4442933;32;19992;-67
2022/08/01 01:02:45;;;;;;;;;;;;;;;30.55;26.25;101048.47;4444587;32;19964;-67
2022/08/01 01:05:11;;;;;;;;;;;;;;;30.99;25.73;101060.94;4443453;32;19989;-67
2022/08/01 01:07:57;;;;;;;;;;;;;;;30.81;26.03;101049.03;4450200;32;19964;-68
2022/08/01 01:10:25;;;;;;;;;;;;;;;30.25;26.77;101054.06;4444293;32;20279;-68
2022/08/01 01:13:10;;;;;;;;;;;;;;;30.69;26.24;101055.72;4446852;32;19959;-68
2022/08/01 01:21:10;;;;;;;;;;;;;;;31.80;25.14;101058.88;3958296;32;15722761;-68
2022/08/01 01:29:01;;;;;;;;;;;;;;;31.58;25.22;101068.34;3951041;32;15726276;-68
2022/08/01 01:31:27;;;;;;;;;;;;;;;31.58;25.22;101068.34;4434477;32;19980;-68
2022/08/01 01:33:54;;;;;;;;;;;;;;;31.04;25.57;101057.87;4436167;32;19973;-68
2022/08/01 01:36:21;;;;;;;;;;;;;;;30.92;25.93;101058.78;4435479;32;20019;-68
2022/08/01 01:38:48;;;;;;;;;;;;;;;31.22;25.57;101059.69;4434636;32;20131;-68
2022/08/01 01:41:15;;;;;;;;;;;;;;;31.01;25.67;101059.00;4434220;32;20224;-69
2022/08/01 01:43:41;;;;;;;;;;;;;;;31.28;25.41;101057.41;4433227;32;20385;-68
2022/08/01 01:46:08;;;;;;;;;;;;;;;30.97;25.70;101058.62;4437004;32;20056;-69
2022/08/01 01:48:35;;;;;;;;;;;;;;;30.84;25.80;101052.94;4433711;32;19979;-68
2022/08/01 01:51:01;;;;;;;;;;;;;;;29.96;27.11;101061.13;4434921;32;19981;-68
2022/08/01 01:53:28;;;;;;;;;;;;;;;30.62;26.06;101059.38;4437437;32;20371;-68
2022/08/01 01:55:55;;;;;;;;;;;;;;;30.71;26.13;101056.69;4434151;32;19983;-68
2022/08/01 01:58:21;;;;;;;;;;;;;;;31.03;25.83;101053.41;4436502;32;20005;-68
2022/08/01 02:00:48;;;;;;;;;;;;;;;30.89;25.96;101063.59;4433576;32;19960;-68
2022/08/01 02:03:14;;;;;;;;;;;;;;;31.14;25.66;101052.28;4422219;32;19992;-69
2022/08/01 02:05:41;;;;;;;;;;;;;;;30.77;26.09;101047.88;4434092;32;20397;-68
2022/08/01 02:08:08;;;;;;;;;;;;;;;30.41;26.44;101038.31;4433106;32;20008;-68
2022/08/01 02:10:35;;;;;;;;;;;;;;;30.94;25.76;101042.31;4434630;32;19945;-67
2022/08/01 02:13:02;;;;;;;;;;;;;;;30.71;25.97;101042.16;4435449;32;20005;-69
2022/08/01 02:15:29;;;;;;;;;;;;;;;30.71;26.05;101036.34;4434991;32;19964;-68
2022/08/01 02:17:56;;;;;;;;;;;;;;;30.81;26.04;101048.28;4434767;32;20354;-69
2022/08/01 02:20:22;;;;;;;;;;;;;;;30.79;26.18;101043.03;4434761;32;19965;-68
2022/08/01 02:22:51;;;;;;;;;;;;;;;31.05;25.83;101053.63;4423604;32;20048;-68
2022/08/01 02:28:16;;;;;;;;;;;;;;;31.55;25.31;101055.75;3962507;32;15722515;-69
2022/08/01 02:30:44;;;;;;;;;;;;;;;31.55;25.31;101055.75;4430939;32;19953;-69
2022/08/01 02:33:16;;;;;;;;;;;;;;;30.97;25.93;101043.28;4430652;32;20011;-69
2022/08/01 02:35:44;;;;;;;;;;;;;;;30.84;26.23;101042.06;4432980;32;20596;-69
2022/08/01 02:38:11;;;;;;;;;;;;;;;30.83;26.23;101036.81;4431098;32;19988;-69
2022/08/01 02:40:40;;;;;;;;;;;;;;;30.90;26.13;101033.22;4429144;32;19957;-69
2022/08/01 02:43:06;;;;;;;;;;;;;;;30.84;26.06;101035.50;4432966;32;19957;-69
2022/08/01 02:45:34;;;;;;;;;;;;;;;31.05;26.04;101030.37;4429981;32;20000;-69
2022/08/01 02:48:04;;;;;;;;;;;;;;;30.62;26.52;101030.31;4431529;32;20031;-69
2022/08/01 02:50:31;;;;;;;;;;;;;;;30.83;26.27;101023.09;4431807;32;19997;-69
2022/08/01 02:52:57;;;;;;;;;;;;;;;31.06;26.04;101026.09;4432784;32;20004;-69
2022/08/01 02:55:23;;;;;;;;;;;;;;;31.05;26.07;101026.66;4432209;32;19989;-69
2022/08/01 02:57:50;;;;;;;;;;;;;;;30.86;26.41;101021.16;4431943;32;20331;-68
2022/08/01 03:00:16;;;;;;;;;;;;;;;31.09;26.07;101027.84;4428963;32;19960;-69
2022/08/01 03:02:43;;;;;;;;;;;;;;;30.93;26.21;101029.16;4430135;32;19960;-68
2022/08/01 03:05:10;;;;;;;;;;;;;;;30.97;26.40;101032.44;4431253;32;19988;-68
2022/08/01 03:07:36;;;;;;;;;;;;;;;30.92;26.45;101038.44;4431058;32;20304;-68
2022/08/01 03:10:02;;;;;;;;;;;;;;;30.66;26.74;101040.22;4430822;32;20080;-68
2022/08/01 03:12:29;;;;;;;;;;;;;;;30.69;26.68;101047.78;4431375;32;19972;-68
2022/08/01 03:14:57;;;;;;;;;;;;;;;30.80;26.51;101035.84;4428380;32;19997;-68
2022/08/01 03:17:24;;;;;;;;;;;;;;;30.82;26.42;101041.09;4428839;32;19977;-68
2022/08/01 03:19:51;;;;;;;;;;;;;;;30.44;27.00;101037.94;4430067;32;19993;-68
2022/08/01 03:22:18;;;;;;;;;;;;;;;30.60;26.64;101035.91;4428598;32;19949;-68
2022/08/01 03:24:45;;;;;;;;;;;;;;;30.61;26.70;101034.56;4430042;32;20000;-68
2022/08/01 03:27:11;;;;;;;;;;;;;;;30.74;26.65;101032.34;4429433;32;19997;-68
2022/08/01 03:29:37;;;;;;;;;;;;;;;30.07;27.52;101031.84;4430038;32;20004;-68
2022/08/01 03:32:03;;;;;;;;;;;;;;;30.27;27.16;101033.94;4429277;32;19949;-68
2022/08/01 03:34:29;;;;;;;;;;;;;;;30.23;27.23;101037.22;4429556;32;19991;-68
2022/08/01 03:39:33;;;;;;;;;;;;;;;31.07;26.37;101029.78;3971714;31;15716757;-69
2022/08/01 03:42:01;;;;;;;;;;;;;;;31.07;26.37;101029.78;4457892;32;20044;-69
2022/08/01 03:44:29;;;;;;;;;;;;;;;30.56;27.04;101033.37;4447958;32;20022;-69
2022/08/01 03:47:00;;;;;;;;;;;;;;;30.23;27.40;101031.41;4459033;32;20726;-69
2022/08/01 03:49:29;;;;;;;;;;;;;;;30.25;27.50;101020.00;4460319;32;19996;-69
2022/08/01 03:51:55;;;;;;;;;;;;;;;30.49;27.20;101027.50;4459166;32;20423;-69
2022/08/01 03:54:22;;;;;;;;;;;;;;;30.23;27.45;101022.69;4459704;32;19988;-69
2022/08/01 03:56:48;;;;;;;;;;;;;;;30.38;27.48;101017.00;4456975;32;21173;-69
2022/08/01 03:59:14;;;;;;;;;;;;;;;30.48;27.29;101015.12;4460569;32;20419;-69
2022/08/01 04:01:40;;;;;;;;;;;;;;;30.18;27.78;101014.09;4459319;32;19976;-69
2022/08/01 04:04:05;;;;;;;;;;;;;;;29.97;27.97;101016.28;4458620;32;20304;-69
2022/08/01 04:06:36;;;;;;;;;;;;;;;30.10;27.97;101014.03;4456579;32;20045;-69
2022/08/01 04:09:02;;;;;;;;;;;;;;;30.14;28.04;101014.47;4458813;32;20000;-70
2022/08/01 04:11:28;;;;;;;;;;;;;;;29.77;28.48;101032.34;4458321;32;20006;-70
2022/08/01 04:13:54;;;;;;;;;;;;;;;29.80;28.52;101028.31;4458979;32;20019;-69
2022/08/01 04:16:20;;;;;;;;;;;;;;;29.35;29.07;101024.13;4459469;32;19949;-69
2022/08/01 04:18:46;;;;;;;;;;;;;;;29.20;29.39;101016.03;4457598;32;20045;-69
2022/08/01 04:21:12;;;;;;;;;;;;;;;29.54;28.70;101016.78;4459665;32;20267;-69
2022/08/01 04:23:39;;;;;;;;;;;;;;;29.06;29.69;101011.66;4455936;32;20036;-69
2022/08/01 04:26:05;;;;;;;;;;;;;;;29.07;29.33;101012.41;4457083;32;20023;-69
2022/08/01 04:28:34;;;;;;;;;;;;;;;29.34;29.10;101008.09;4459141;32;20453;-68
2022/08/01 04:31:00;;;;;;;;;;;;;;;29.42;29.01;101008.94;4459817;32;19948;-69
2022/08/01 04:33:26;;;;;;;;;;;;;;;29.32;29.24;101002.09;4457424;32;19991;-69
2022/08/01 04:35:52;;;;;;;;;;;;;;;29.37;29.15;101015.66;4452733;32;20522;-68
2022/08/01 04:38:20;;;;;;;;;;;;;;;29.24;29.31;101015.72;4457317;32;20000;-68
2022/08/01 04:40:46;;;;;;;;;;;;;;;29.35;28.90;101013.31;4460429;32;20488;-69
2022/08/01 04:43:12;;;;;;;;;;;;;;;29.20;29.09;101012.38;4457557;32;20378;-70
2022/08/01 04:45:38;;;;;;;;;;;;;;;29.35;29.10;101013.31;4457128;32;19983;-69
2022/08/01 04:48:06;;;;;;;;;;;;;;;29.49;29.07;101014.84;4458695;32;19999;-70
2022/08/01 04:50:31;;;;;;;;;;;;;;;29.31;29.16;101017.91;4446876;32;20214;-69
2022/08/01 04:52:57;;;;;;;;;;;;;;;29.48;28.95;101021.19;4434465;32;19953;-69
2022/08/01 04:55:23;;;;;;;;;;;;;;;29.48;28.91;101015.41;4450410;32;19957;-69
2022/08/01 04:57:48;;;;;;;;;;;;;;;29.34;29.21;101019.69;4449512;32;20004;-69
2022/08/01 05:00:16;;;;;;;;;;;;;;;29.63;28.77;101021.38;4448059;32;19999;-69
2022/08/01 05:02:42;;;;;;;;;;;;;;;29.57;28.73;101026.50;4447499;32;19952;-69
2022/08/01 05:05:08;;;;;;;;;;;;;;;29.34;29.01;101014.66;4442315;32;19956;-69
2022/08/01 05:07:35;;;;;;;;;;;;;;;29.43;28.89;101022.09;4446429;32;19957;-70
2022/08/01 05:10:04;;;;;;;;;;;;;;;28.91;29.34;101026.69;4445850;32;19945;-69
2022/08/01 05:12:31;;;;;;;;;;;;;;;28.89;29.68;101022.78;4442648;32;20402;-68
2022/08/01 05:14:59;;;;;;;;;;;;;;;29.00;29.54;101029.09;4443948;32;19952;-69
2022/08/01 05:17:25;;;;;;;;;;;;;;;29.37;28.88;101025.16;4446026;32;21382;-69
2022/08/01 05:19:52;;;;;;;;;;;;;;;29.32;29.15;101022.38;4447220;32;20342;-69
2022/08/01 05:22:17;;;;;;;;;;;;;;;29.49;28.86;101028.53;4445899;32;20391;-70
2022/08/01 05:24:43;;;;;;;;;;;;;;;29.44;28.97;101033.13;4447459;32;20031;-69
2022/08/01 05:27:08;;;;;;;;;;;;;;;29.46;28.88;101030.47;4445621;32;19957;-69
2022/08/01 05:29:34;;;;;;;;;;;;;;;29.59;28.50;101033.28;4447073;32;19972;-69
2022/08/01 05:32:00;;;;;;;;;;;;;;;29.79;28.57;101023.84;4446492;32;20361;-69
2022/08/01 05:34:26;;;;;;;;;;;;;;;29.70;28.39;101026.47;4448994;32;19952;-69
2022/08/01 05:36:51;;;;;;;;;;;;;;;29.90;28.44;101031.47;4446355;32;19961;-69
2022/08/01 05:39:17;;;;;;;;;;;;;;;30.00;28.33;101026.75;4447050;32;19964;-70
2022/08/01 05:41:44;;;;;;;;;;;;;;;30.12;28.22;101033.78;4444611;32;19994;-70
2022/08/01 05:44:09;;;;;;;;;;;;;;;29.98;28.08;101030.22;4446369;32;19993;-68
2022/08/01 05:46:35;;;;;;;;;;;;;;;30.17;27.89;101036.56;4446339;32;20007;-69
2022/08/01 05:49:02;;;;;;;;;;;;;;;30.27;27.90;101039.75;4448080;32;19992;-69
2022/08/01 05:51:27;;;;;;;;;;;;;;;30.40;27.68;101045.47;4445063;32;20334;-69
2022/08/01 05:53:53;;;;;;;;;;;;;;;30.72;27.33;101043.75;4446808;32;20011;-69
2022/08/01 05:56:20;;;;;;;;;;;;;;;30.63;27.04;101041.38;4442287;32;19948;-69
2022/08/01 05:58:49;;;;;;;;;;;;;;;30.90;26.95;101041.13;4446282;32;19980;-69
2022/08/01 06:01:15;;;;;;;;;;;;;;;31.32;26.72;101049.09;4447949;32;20230;-70
2022/08/01 06:03:40;;;;;;;;;;;;;;;31.34;26.51;101049.28;4446171;32;20338;-69
2022/08/01 06:06:06;;;;;;;;;;;;;;;31.42;26.55;101047.19;4447945;32;20275;-69
2022/08/01 06:08:31;;;;;;;;;;;;;;;31.32;26.42;101049.09;4445979;32;20012;-74
2022/08/01 06:10:57;;;;;;;;;;;;;;;31.30;26.45;101066.34;4448626;32;20011;-69
2022/08/01 06:13:23;;;;;;;;;;;;;;;31.61;26.24;101062.16;4446210;32;20341;-69
2022/08/01 06:15:50;;;;;;;;;;;;;;;31.35;26.23;101067.53;4445107;32;19952;-69
2022/08/01 06:18:15;;;;;;;;;;;;;;;31.74;26.17;101064.13;4447256;32;20457;-68
2022/08/01 06:20:41;;;;;;;;;;;;;;;31.96;25.86;101063.41;4447890;32;19991;-69
2022/08/01 06:23:07;;;;;;;;;;;;;;;32.13;25.52;101058.56;4449208;32;19982;-69
2022/08/01 06:25:33;;;;;;;;;;;;;;;31.88;25.59;101060.50;4445717;32;19979;-68
2022/08/01 06:27:58;;;;;;;;;;;;;;;31.81;25.90;101057.56;4445031;32;20006;-68
2022/08/01 06:30:24;;;;;;;;;;;;;;;32.08;25.60;101067.47;4445932;32;19961;-68
2022/08/01 06:32:49;;;;;;;;;;;;;;;31.81;25.95;101069.97;4445086;32;19995;-68
2022/08/01 06:35:15;;;;;;;;;;;;;;;31.31;26.45;101070.81;4444840;32;20481;-69
2022/08/01 06:37:41;;;;;;;;;;;;;;;31.57;26.01;101073.38;4443349;32;20787;-68
2022/08/01 06:40:08;;;;;;;;;;;;;;;31.57;25.87;101066.81;4445409;32;20047;-69
2022/08/01 06:42:35;;;;;;;;;;;;;;;32.27;25.18;101065.72;4441929;32;19984;-68
2022/08/01 06:45:02;;;;;;;;;;;;;;;32.00;25.19;101063.81;4447242;32;20028;-68
2022/08/01 06:47:28;;;;;;;;;;;;;;;31.81;25.65;101058.34;4447096;32;20640;-68
2022/08/01 06:49:54;;;;;;;;;;;;;;;31.96;25.26;101063.41;4447542;32;19960;-68
2022/08/01 06:52:20;;;;;;;;;;;;;;;31.33;26.24;101067.31;4445594;32;20394;-69
2022/08/01 06:54:46;;;;;;;;;;;;;;;31.47;26.16;101071.66;4445326;32;20048;-68
2022/08/01 06:57:11;;;;;;;;;;;;;;;31.18;26.39;101055.59;4445052;32;19980;-69
2022/08/01 06:59:37;;;;;;;;;;;;;;;31.27;26.23;101060.87;4443517;32;20351;-68
2022/08/01 07:02:02;;;;;;;;;;;;;;;30.90;26.69;101059.38;4445451;32;19953;-69
2022/08/01 07:04:29;;;;;;;;;;;;;;;30.95;26.63;101060.56;4443960;32;20076;-69
2022/08/01 07:06:54;;;;;;;;;;;;;;;31.35;26.12;101059.56;4443501;32;19992;-68
2022/08/01 07:09:20;;;;;;;;;;;;;;;32.00;25.51;101060.91;4444930;32;20040;-69
2022/08/01 07:11:45;;;;;;;;;;;;;;;32.06;25.30;101067.31;4444743;32;20426;-69
2022/08/01 07:14:11;;;;;;;;;;;;;;;32.17;24.88;101069.81;4441710;32;19953;-69
2022/08/01 07:16:36;;;;;;;;;;;;;;;32.38;24.60;101076.25;4443719;32;20004;-70
2022/08/01 07:19:02;;;;;;;;;;;;;;;32.36;24.19;101070.22;4445302;32;19990;-69
2022/08/01 07:21:28;;;;;;;;;;;;;;;31.85;24.72;101058.75;4445404;32;19956;-69
2022/08/01 07:23:53;;;;;;;;;;;;;;;31.83;24.81;101064.37;4447155;32;20074;-69
2022/08/01 07:26:18;;;;;;;;;;;;;;;32.13;24.57;101064.41;4444648;32;19996;-70
2022/08/01 07:28:44;;;;;;;;;;;;;;;32.41;23.85;101054.69;4445162;32;20001;-70
2022/08/01 07:31:10;;;;;;;;;;;;;;;32.16;24.34;101057.41;4444865;32;20597;-69
2022/08/01 07:33:35;;;;;;;;;;;;;;;32.65;23.69;101060.66;4444139;32;19944;-70
2022/08/01 07:36:01;;;;;;;;;;;;;;;32.88;23.57;101063.53;4444818;32;19964;-70
2022/08/01 07:38:26;;;;;;;;;;;;;;;32.87;23.00;101062.00;4444698;32;19945;-70
2022/08/01 07:40:52;;;;;;;;;;;;;;;32.87;23.17;101064.13;4440584;32;19988;-70
2022/08/01 07:43:17;;;;;;;;;;;;;;;32.90;22.34;101068.78;4446195;32;20380;-69
2022/08/01 07:45:43;;;;;;;;;;;;;;;32.55;22.95;101062.62;4444632;32;20443;-69
2022/08/01 07:48:09;;;;;;;;;;;;;;;33.17;22.38;101055.28;4444551;32;19960;-70
2022/08/01 07:50:34;;;;;;;;;;;;;;;33.25;22.56;101068.44;4441918;32;20340;-69
2022/08/01 07:53:00;;;;;;;;;;;;;;;33.26;22.08;101066.31;4439234;32;19949;-69
2022/08/01 07:55:26;;;;;;;;;;;;;;;33.17;22.45;101058.19;4439854;32;20218;-69
2022/08/01 07:57:51;;;;;;;;;;;;;;;33.65;21.96;101056.81;4441029;32;20023;-69
2022/08/01 08:00:18;;;;;;;;;;;;;;;33.44;22.13;101053.41;4441698;32;19994;-69
2022/08/01 08:02:43;;;;;;;;;;;;;;;33.09;22.02;101051.59;4446740;32;19956;-69
2022/08/01 08:05:09;;;;;;;;;;;;;;;33.25;21.57;101047.28;4444475;32;20345;-69
2022/08/01 08:07:35;;;;;;;;;;;;;;;33.27;21.68;101042.38;4446172;32;20409;-70
2022/08/01 08:10:00;;;;;;;;;;;;;;;33.48;21.33;101053.78;4444187;32;19993;-70
2022/08/01 08:12:26;;;;;;;;;;;;;;;32.80;22.22;101047.41;4443010;32;20385;-69
2022/08/01 08:14:51;;;;;;;;;;;;;;;33.24;21.56;101051.53;4443873;32;20389;-69
2022/08/01 08:17:17;;;;;;;;;;;;;;;33.45;21.52;101044.06;4440040;32;20390;-69
2022/08/01 08:19:42;;;;;;;;;;;;;;;33.50;21.40;101045.97;4440575;32;19988;-70
2022/08/01 08:22:08;;;;;;;;;;;;;;;33.42;21.59;101050.31;4445448;32;19952;-69
2022/08/01 08:24:35;;;;;;;;;;;;;;;33.27;21.78;101041.59;4443215;32;20012;-69
2022/08/01 08:27:00;;;;;;;;;;;;;;;33.82;21.25;101045.19;4443895;32;20357;-69
2022/08/01 08:29:27;;;;;;;;;;;;;;;33.43;21.57;101038.03;4444587;32;20012;-69
2022/08/01 08:31:53;;;;;;;;;;;;;;;33.95;20.54;101031.09;4445584;32;20451;-69
2022/08/01 08:34:19;;;;;;;;;;;;;;;34.12;20.57;101027.44;4447552;32;20035;-69
2022/08/01 08:36:45;;;;;;;;;;;;;;;34.46;20.01;101036.31;4443211;32;20017;-69
2022/08/01 08:39:10;;;;;;;;;;;;;;;34.54;19.89;101033.31;4436436;32;19977;-69
2022/08/01 08:41:36;;;;;;;;;;;;;;;34.23;20.11;101027.72;4444662;32;19968;-70
2022/08/01 08:44:02;;;;;;;;;;;;;;;34.52;19.80;101030.19;4444503;32;20346;-69
2022/08/01 08:46:28;;;;;;;;;;;;;;;34.60;19.90;101036.75;4448554;32;19967;-69
2022/08/01 08:48:54;;;;;;;;;;;;;;;34.40;20.00;101038.69;4435081;32;19960;-69
2022/08/01 08:51:21;;;;;;;;;;;;;;;34.27;20.29;101039.00;4443781;32;19949;-69
2022/08/01 08:53:46;;;;;;;;;;;;;;;34.71;19.60;101034.09;4441631;32;20003;-69
2022/08/01 08:56:13;;;;;;;;;;;;;;;35.22;19.40;101042.81;4442072;32;19949;-69
2022/08/01 08:58:40;;;;;;;;;;;;;;;35.65;18.88;101039.09;4445013;32;19968;-69
2022/08/01 09:01:08;;;;;;;;;;;;;;;35.33;19.41;101036.47;4448236;32;20031;-69
2022/08/01 09:03:33;;;;;;;;;;;;;;;35.83;18.92;101039.88;4444114;32;20028;-70
2022/08/01 09:06:00;;;;;;;;;;;;;;;36.27;18.50;101042.62;4445599;32;20002;-70
2022/08/01 09:08:25;;;;;;;;;;;;;;;36.16;18.23;101041.81;4446481;32;20207;-69
2022/08/01 09:10:51;;;;;;;;;;;;;;;36.25;18.12;101043.22;4445139;32;20338;-70
2022/08/01 09:13:16;;;;;;;;;;;;;;;36.13;18.17;101037.19;4443033;32;19971;-69
2022/08/01 09:15:44;;;;;;;;;;;;;;;35.82;18.17;101038.28;4444080;32;20040;-69
2022/08/01 09:18:29;;;;;;;;;;;;;;;36.65;17.49;101043.50;4445575;32;20315;-69
2022/08/01 09:21:14;;;;;;;;;;;;;;;37.08;17.34;101053.41;4445581;32;20006;-69
2022/08/01 09:23:43;;;;;;;;;;;;;;;37.36;17.12;101037.97;4443629;32;19948;-69
2022/08/01 09:26:09;;;;;;;;;;;;;;;37.46;17.11;101035.78;4444141;32;20348;-70
2022/08/01 09:28:35;;;;;;;;;;;;;;;37.72;17.08;101031.84;4443038;32;19996;-70
2022/08/01 09:31:10;;;;;;;;;;;;;;;37.25;17.09;101035.66;4442481;32;20008;-70
2022/08/01 09:33:52;;;;;;;;;;;;;;;37.30;17.29;101032.41;4443248;32;20002;-70
2022/08/01 09:36:19;;;;;;;;;;;;;;;38.23;16.77;101030.41;4442609;32;20004;-70
2022/08/01 09:38:44;;;;;;;;;;;;;;;38.16;16.49;101032.12;4442680;32;20008;-69
2022/08/01 09:41:11;;;;;;;;;;;;;;;37.26;17.21;101043.06;4447251;32;20244;-69
2022/08/01 09:43:36;;;;;;;;;;;;;;;37.72;16.72;101035.56;4443229;32;19979;-70
2022/08/01 09:46:13;;;;;;;;;;;;;;;38.26;16.28;101032.09;4440746;32;19957;-69
2022/08/01 09:48:39;;;;;;;;;;;;;;;38.13;16.49;101039.28;4444022;32;19957;-70
2022/08/01 09:51:05;;;;;;;;;;;;;;;37.71;16.74;101036.97;4442145;32;19962;-69
2022/08/01 09:53:47;;;;;;;;;;;;;;;37.55;16.76;101032.78;4442103;32;20793;-69
2022/08/01 09:56:13;;;;;;;;;;;;;;;37.62;17.02;101028.94;4441497;32;20011;-70
2022/08/01 09:58:49;;;;;;;;;;;;;;;37.52;17.04;101030.34;4443245;32;20200;-70
2022/08/01 10:01:14;;;;;;;;;;;;;;;37.17;17.26;101037.94;4443116;32;20116;-70
2022/08/01 10:03:40;;;;;;;;;;;;;;;37.41;17.14;101028.84;4444631;32;19945;-70
2022/08/01 10:06:22;;;;;;;;;;;;;;;36.85;17.33;101026.72;4445222;32;19953;-69
2022/08/01 10:08:48;;;;;;;;;;;;;;;36.97;17.33;101027.63;4443203;32;20010;-69
2022/08/01 10:11:14;;;;;;;;;;;;;;;37.24;17.63;101025.31;4443094;32;20356;-69
2022/08/01 10:13:40;;;;;;;;;;;;;;;38.08;16.68;101036.63;4443670;32;20043;-70
2022/08/01 10:16:06;;;;;;;;;;;;;;;39.20;15.65;101035.75;4444492;32;20408;-70
2022/08/01 10:18:33;;;;;;;;;;;;;;;38.77;15.83;101043.06;4444051;32;19975;-70
2022/08/01 10:20:59;;;;;;;;;;;;;;;38.56;15.53;101052.66;4442526;32;20596;-69
2022/08/01 10:23:27;;;;;;;;;;;;;;;38.87;15.38;101037.88;4444608;32;20281;-70
2022/08/01 10:25:53;;;;;;;;;;;;;;;38.81;15.71;101047.06;4442676;32;19998;-70
2022/08/01 10:28:20;;;;;;;;;;;;;;;39.07;15.52;101048.09;4444753;32;20446;-70
2022/08/01 10:30:46;;;;;;;;;;;;;;;38.63;15.77;101045.03;4443293;32;20001;-69
2022/08/01 10:33:11;;;;;;;;;;;;;;;39.99;14.78;101041.69;4443440;32;20533;-70
2022/08/01 10:35:38;;;;;;;;;;;;;;;40.39;14.41;101042.09;4446553;32;19980;-71
2022/08/01 10:38:04;;;;;;;;;;;;;;;39.60;15.18;101056.88;4441185;32;20574;-70
2022/08/01 10:40:30;;;;;;;;;;;;;;;39.75;15.01;101048.97;4443991;32;19998;-70
2022/08/01 10:42:56;;;;;;;;;;;;;;;39.69;15.01;101043.44;4444676;32;20361;-70
2022/08/01 10:45:22;;;;;;;;;;;;;;;38.73;15.69;101045.72;4442723;32;19973;-70
2022/08/01 10:47:54;;;;;;;;;;;;;;;39.61;15.21;101040.72;4444120;32;21128;-69
2022/08/01 10:50:39;;;;;;;;;;;;;;;39.12;15.76;101044.81;4441872;32;20490;-69
2022/08/01 10:55:50;;;;;;;;;;;;;;;39.75;15.78;101034.97;3949575;32;15723449;-70
2022/08/01 10:58:23;;;;;;;;;;;;;;;39.75;15.78;101034.97;4430264;32;20394;-70
2022/08/01 11:01:09;;;;;;;;;;;;;;;38.76;16.37;101033.47;4434936;32;19964;-70
2022/08/01 11:03:35;;;;;;;;;;;;;;;39.11;16.02;101040.31;4433974;32;20461;-70
2022/08/01 11:06:03;;;;;;;;;;;;;;;39.75;15.51;101034.22;4432586;32;19988;-70
2022/08/01 11:08:30;;;;;;;;;;;;;;;39.84;15.53;101030.44;4433257;32;20456;-70
2022/08/01 11:11:04;;;;;;;;;;;;;;;39.97;15.51;101029.78;4433721;32;20145;-70
2022/08/01 11:13:50;;;;;;;;;;;;;;;40.19;15.22;101026.06;4432450;32;20324;-70
2022/08/01 11:16:32;;;;;;;;;;;;;;;40.47;15.08;101018.22;4431746;32;20001;-70
2022/08/01 11:18:57;;;;;;;;;;;;;;;40.98;14.76;101019.87;4431069;32;19962;-70
2022/08/01 11:21:43;;;;;;;;;;;;;;;40.40;15.10;101017.06;4435536;32;20130;-70
2022/08/01 11:24:08;;;;;;;;;;;;;;;41.34;14.31;101013.94;4432428;32;19975;-69
2022/08/01 11:26:34;;;;;;;;;;;;;;;42.48;13.69;101010.72;4419447;32;20016;-70
2022/08/01 11:29:16;;;;;;;;;;;;;;;42.55;13.52;101015.53;4430516;32;19953;-69
2022/08/01 11:31:41;;;;;;;;;;;;;;;42.27;13.81;101014.00;4432226;32;20390;-69
2022/08/01 11:34:07;;;;;;;;;;;;;;;41.57;14.29;101010.09;4435894;32;19996;-70
2022/08/01 11:36:33;;;;;;;;;;;;;;;40.99;14.39;100994.84;4431910;32;20296;-71
2022/08/01 11:41:37;;;;;;;;;;;;;;;41.36;14.44;100999.28;3958552;31;15727326;-70
2022/08/01 11:46:47;;;;;;;;;;;;;;;41.34;14.38;100986.56;3949373;32;15731645;-70
2022/08/01 11:49:33;;;;;;;;;;;;;;;41.34;14.38;100986.56;4433224;32;20044;-70
2022/08/01 11:54:37;;;;;;;;;;;;;;;40.45;15.29;100962.03;3951088;32;15722578;-70
2022/08/01 11:57:04;;;;;;;;;;;;;;;41.98;14.21;100981.38;4426781;32;19985;-70
2022/08/01 11:59:35;;;;;;;;;;;;;;;42.43;13.44;100966.81;4429013;32;20017;-70
2022/08/01 12:02:01;;;;;;;;;;;;;;;42.49;13.35;100976.78;4431235;32;19989;-71
2022/08/01 12:04:43;;;;;;;;;;;;;;;41.42;14.12;100970.09;4432123;32;19985;-70
2022/08/01 12:07:13;;;;;;;;;;;;;;;41.66;13.98;100970.72;4429122;32;19988;-71
2022/08/01 12:09:38;;;;;;;;;;;;;;;41.56;14.05;100970.13;4425573;32;20012;-71
2022/08/01 12:12:04;;;;;;;;;;;;;;;41.81;14.08;100973.00;4429124;32;20506;-71
2022/08/01 12:14:30;;;;;;;;;;;;;;;42.27;13.33;100977.75;4429619;32;20032;-70
2022/08/01 12:16:55;;;;;;;;;;;;;;;42.68;12.94;100972.53;4429666;32;20269;-70
2022/08/01 12:19:22;;;;;;;;;;;;;;;42.58;13.31;100980.91;4426172;32;20032;-70
2022/08/01 12:22:08;;;;;;;;;;;;;;;42.26;13.47;100976.22;4426796;32;20309;-70
2022/08/01 12:24:34;;;;;;;;;;;;;;;42.24;13.41;100970.94;4430861;32;20373;-70
2022/08/01 12:26:59;;;;;;;;;;;;;;;42.28;13.59;100967.44;4429590;32;20004;-70
2022/08/01 12:29:41;;;;;;;;;;;;;;;42.44;13.23;100960.22;4428713;32;20002;-69
2022/08/01 12:32:27;;;;;;;;;;;;;;;43.43;12.59;100962.28;4432486;32;21398;-70
2022/08/01 12:34:53;;;;;;;;;;;;;;;43.23;12.99;100965.03;4426353;32;19952;-71
2022/08/01 12:37:20;;;;;;;;;;;;;;;43.37;12.87;100956.06;4429586;32;19997;-71
2022/08/01 12:39:46;;;;;;;;;;;;;;;42.79;13.52;100965.75;4425215;32;19990;-69
2022/08/01 12:42:12;;;;;;;;;;;;;;;41.77;14.12;100949.13;4427954;32;20350;-69
2022/08/01 12:44:38;;;;;;;;;;;;;;;42.08;13.82;100951.59;4427637;32;20386;-69
2022/08/01 12:47:06;;;;;;;;;;;;;;;41.05;14.40;100950.91;4426799;32;20369;-69
2022/08/01 12:49:34;;;;;;;;;;;;;;;41.64;13.83;100955.81;4427495;32;19968;-70
2022/08/01 12:52:00;;;;;;;;;;;;;;;42.35;13.31;100936.78;4427606;32;19964;-71
2022/08/01 12:54:26;;;;;;;;;;;;;;;41.90;13.69;100941.75;4427529;32;19965;-71
2022/08/01 12:56:53;;;;;;;;;;;;;;;42.27;13.47;100939.28;4425993;32;20035;-69
2022/08/01 12:59:23;;;;;;;;;;;;;;;42.02;13.60;100948.31;4427194;32;20384;-69
2022/08/01 13:01:49;;;;;;;;;;;;;;;41.53;14.14;100938.94;4426346;32;20186;-69
2022/08/01 13:04:14;;;;;;;;;;;;;;;42.31;13.57;100928.47;4422297;32;19989;-70